Time;durP1;ratioP1;P1;durP2;ratioP2;P2;SDS_P1;SDS_P2;PMS_P1;PMS_P2;Temp;Humidity;BMP_temperature;BMP_pressure;BME280_temperature;BME280_humidity;BME280_pressure;Samples;Min_cycle;Max_cycle;Signal;HPM_P1;HPM_P2
2022/06/02 00:03:00;;;;;;;;;;;;;;;14.25;63.83;100127.56;130312;1271;108758;-75
2022/06/02 00:06:16;;;;;;;3.40;3.10;;;;;;;14.21;64.25;100131.05;130222;1271;108677;-74
2022/06/02 00:09:41;;;;;;;5.10;3.60;;;;;;;14.21;64.41;100121.77;130267;1271;108679;-74
2022/06/02 00:12:52;;;;;;;3.20;2.60;;;;;;;14.20;64.41;100118.94;130227;1271;108656;-74
2022/06/02 00:16:03;;;;;;;2.90;2.60;;;;;;;14.18;64.57;100129.77;130166;1271;108927;-74
2022/06/02 00:19:28;;;;;;;3.30;3.00;;;;;;;14.20;64.76;100137.40;130199;1271;108906;-75
2022/06/02 00:22:42;;;;;;;3.10;2.80;;;;;;;14.25;64.64;100144.78;130326;1271;108884;-74
2022/06/02 00:25:55;;;;;;;3.50;3.20;;;;;;;14.27;64.74;100143.39;130250;1271;108777;-78
2022/06/02 00:29:11;;;;;;;3.50;3.00;;;;;;;14.29;64.84;100148.50;130106;1270;108807;-75
2022/06/02 00:32:23;;;;;;;3.90;3.40;;;;;;;14.32;64.99;100154.13;130135;1270;108748;-75
2022/06/02 00:35:37;;;;;;;4.00;3.30;;;;;;;14.30;65.04;100175.77;130085;1271;108849;-75
2022/06/02 00:38:43;;;;;;;4.20;3.50;;;;;;;14.29;65.10;100183.64;130079;1271;108760;-75
2022/06/02 00:42:04;;;;;;;3.10;2.70;;;;;;;14.28;65.13;100180.39;130052;1271;108903;-76
2022/06/02 00:45:15;;;;;;;3.70;2.90;;;;;;;14.25;65.32;100179.27;130136;1269;108667;-76
2022/06/02 00:48:28;;;;;;;3.70;3.20;;;;;;;14.25;65.55;100181.73;130171;1271;108581;-78
2022/06/02 00:51:48;;;;;;;4.10;3.40;;;;;;;14.23;65.89;100173.79;130284;1270;108852;-78
2022/06/02 00:58:36;;;;;;;3.70;3.30;;;;;;;14.24;65.71;100160.56;130095;1269;108715;-76
2022/06/02 01:01:42;;;;;;;4.80;3.40;;;;;;;14.27;65.97;100169.36;129972;1271;185755;-76
2022/06/02 01:04:47;;;;;;;4.40;4.00;;;;;;;14.24;66.26;100170.92;130109;1271;108876;-76
2022/06/02 01:08:01;;;;;;;6.10;4.40;;;;;;;14.12;66.53;100169.34;130237;1271;107797;-76
2022/06/02 01:11:21;;;;;;;7.10;4.90;;;;;;;13.95;67.00;100170.67;130113;1271;108649;-76
2022/06/02 01:14:39;;;;;;;6.80;5.60;;;;;;;13.86;67.63;100163.39;130089;1271;108864;-75
2022/06/02 01:18:01;;;;;;;6.70;6.00;;;;;;;13.79;67.48;100152.37;130173;1271;108670;-76
2022/06/02 01:21:22;;;;;;;6.20;5.40;;;;;;;13.79;66.96;100127.13;130107;1270;108640;-77
2022/06/02 01:24:50;;;;;;;8.90;6.40;;;;;;;13.89;66.66;100118.31;130126;1271;108884;-76
2022/06/02 01:28:28;;;;;;;8.90;6.40;;;;;;;13.96;66.76;100115.05;130099;1271;109964;-76
2022/06/02 01:31:44;;;;;;;6.80;6.10;;;;;;;13.92;66.67;100101.13;130104;1270;108588;-75
2022/06/02 01:34:59;;;;;;;6.70;5.80;;;;;;;13.90;66.51;100110.94;130149;1271;108781;-76
2022/06/02 01:38:13;;;;;;;5.10;4.40;;;;;;;13.88;67.11;100122.30;130095;1271;108421;-76
2022/06/02 01:41:27;;;;;;;4.10;3.70;;;;;;;13.87;67.20;100118.27;130067;1271;108893;-76
2022/06/02 01:44:43;;;;;;;4.50;4.00;;;;;;;13.86;67.29;100120.23;130267;1271;108882;-76
2022/06/02 01:47:53;;;;;;;4.80;4.30;;;;;;;13.88;67.31;100127.16;130214;1271;108898;-76
2022/06/02 01:51:09;;;;;;;4.80;4.30;;;;;;;13.90;67.32;100124.95;130148;1269;108823;-75
2022/06/02 01:54:25;;;;;;;5.40;4.50;;;;;;;13.91;67.44;100130.30;130067;1271;108905;-76
2022/06/02 01:57:48;;;;;;;5.20;4.60;;;;;;;13.91;67.55;100139.12;130120;1271;108776;-75
2022/06/02 02:00:56;;;;;;;;;;;;;;;13.93;67.61;100159.54;130171;1271;108753;-72
2022/06/02 02:04:17;;;;;;;5.70;4.80;;;;;;;13.94;67.78;100179.30;130173;1270;108641;-71
2022/06/02 02:07:32;;;;;;;7.40;6.10;;;;;;;13.90;67.97;100183.15;130156;1269;108744;-72
2022/06/02 02:10:57;;;;;;;5.40;4.90;;;;;;;13.88;68.21;100177.47;130030;1271;108863;-70
2022/06/02 02:14:13;;;;;;;5.70;5.00;;;;;;;13.90;68.32;100179.48;129960;1270;108682;-71
2022/06/02 02:17:40;;;;;;;7.30;5.20;;;;;;;13.94;68.34;100190.13;130041;1270;108690;-71
2022/06/02 02:21:00;;;;;;;6.10;5.40;;;;;;;13.96;68.67;100195.88;130112;1271;108649;-70
2022/06/02 02:24:20;;;;;;;5.70;5.10;;;;;;;14.01;68.67;100201.02;130175;1271;108525;-76
2022/06/02 02:28:02;;;;;;;6.40;5.80;;;;;;;14.03;68.68;100208.59;130153;1271;108729;-74
2022/06/02 02:31:19;;;;;;;6.10;4.50;;;;;;;14.05;68.71;100215.36;130184;1271;108757;-75
2022/06/02 02:34:49;;;;;;;4.80;4.30;;;;;;;14.04;68.67;100221.69;130078;1271;109134;-75
2022/06/02 02:38:01;;;;;;;5.50;4.50;;;;;;;14.04;68.93;100223.33;129985;1270;108986;-75
2022/06/02 02:41:13;;;;;;;6.70;4.90;;;;;;;14.06;68.92;100235.14;130198;1271;108849;-75
2022/06/02 02:44:26;;;;;;;7.20;5.80;;;;;;;14.07;69.68;100256.13;130286;1271;108966;-76
2022/06/02 02:47:39;;;;;;;6.90;5.30;;;;;;;13.92;70.01;100271.09;130428;1270;108706;-71
2022/06/02 02:50:53;;;;;;;6.70;5.60;;;;;;;13.87;69.89;100277.48;129946;1270;108597;-72
2022/06/02 02:54:04;;;;;;;5.20;4.60;;;;;;;13.92;69.86;100279.67;129993;1271;108861;-71
2022/06/02 02:57:16;;;;;;;5.40;4.10;;;;;;;13.95;69.94;100277.61;129915;1271;108953;-69
2022/06/02 03:00:27;;;;;;;6.10;4.90;;;;;;;14.01;69.98;100280.91;129877;1270;108629;-70
2022/06/02 03:03:40;;;;;;;7.50;5.00;;;;;;;14.03;69.99;100276.64;129983;1271;108683;-72
2022/06/02 03:06:47;;;;;;;5.50;4.90;;;;;;;14.08;70.11;100273.90;130150;1270;108645;-70
2022/06/02 03:10:02;;;;;;;5.20;4.70;;;;;;;14.10;70.03;100264.19;130103;1270;108499;-70
2022/06/02 03:13:23;;;;;;;6.60;5.30;;;;;;;14.09;70.19;100255.48;129679;1271;108937;-70
2022/06/02 03:16:30;;;;;;;7.00;5.20;;;;;;;13.97;70.39;100263.11;129985;1270;108940;-70
2022/06/02 03:19:46;;;;;;;4.40;4.00;;;;;;;13.93;70.62;100268.05;129954;1270;108020;-70
2022/06/02 03:23:13;;;;;;;5.10;3.60;;;;;;;13.96;70.69;100268.32;130163;1269;108805;-70
2022/06/02 03:26:30;;;;;;;4.90;4.00;;;;;;;14.00;70.70;100275.65;130025;1270;108930;-71
2022/06/02 03:29:47;;;;;;;4.40;3.80;;;;;;;14.05;70.57;100276.32;129992;1270;108811;-70
2022/06/02 03:33:16;;;;;;;4.50;4.00;;;;;;;14.11;70.58;100259.05;130020;1271;108904;-70
2022/06/02 03:36:42;;;;;;;4.70;3.80;;;;;;;14.13;70.67;100268.03;129957;1270;108859;-70
2022/06/02 03:40:05;;;;;;;3.90;3.40;;;;;;;14.14;70.75;100275.64;130089;1270;108787;-71
2022/06/02 03:43:16;;;;;;;4.20;3.30;;;;;;;14.15;70.81;100273.06;129813;1270;108684;-70
2022/06/02 03:46:37;;;;;;;4.30;3.50;;;;;;;14.18;70.69;100266.00;130169;1270;109161;-71
2022/06/02 03:50:22;;;;;;;4.30;3.10;;;;;;;14.19;70.81;100259.39;129971;1271;108731;-70
2022/06/02 03:53:47;;;;;;;5.20;3.70;;;;;;;14.21;70.72;100261.48;130009;1271;108890;-70
2022/06/02 03:57:15;;;;;;;4.30;3.70;;;;;;;14.23;70.79;100270.16;129945;1270;108694;-71
2022/06/02 04:00:25;;;;;;;4.50;3.60;;;;;;;14.27;70.94;100272.05;130054;1270;108958;-70
2022/06/02 04:03:45;;;;;;;6.00;3.90;;;;;;;14.30;70.94;100263.64;130204;1270;108792;-70
2022/06/02 04:07:08;;;;;;;4.70;3.40;;;;;;;14.30;70.96;100261.12;130058;1270;108703;-70
2022/06/02 04:10:24;;;;;;;3.80;3.40;;;;;;;14.29;71.21;100259.26;130082;1270;108742;-70
2022/06/02 04:13:40;;;;;;;4.80;3.70;;;;;;;14.34;71.13;100252.41;130045;1270;108713;-70
2022/06/02 04:16:57;;;;;;;4.40;4.00;;;;;;;14.40;71.12;100241.40;130234;1271;108828;-72
2022/06/02 04:20:37;;;;;;;4.30;3.90;;;;;;;14.46;71.39;100237.86;130110;1270;108851;-72
2022/06/02 04:24:02;;;;;;;4.50;4.00;;;;;;;14.51;71.29;100237.02;130197;1270;108622;-71
2022/06/02 04:27:14;;;;;;;4.50;4.10;;;;;;;14.54;71.35;100229.02;130184;1271;108644;-74
2022/06/02 04:30:28;;;;;;;4.40;4.00;;;;;;;14.56;71.52;100230.58;130188;1271;108860;-73
2022/06/02 04:33:36;;;;;;;3.90;3.50;;;;;;;14.61;71.57;100226.68;130204;1270;108952;-73
2022/06/02 04:36:53;;;;;;;4.10;3.70;;;;;;;14.69;71.60;100227.45;130195;1270;108762;-73
2022/06/02 04:40:06;;;;;;;4.90;3.50;;;;;;;14.76;71.75;100230.58;130233;1270;108729;-73
2022/06/02 04:43:32;;;;;;;4.00;3.60;;;;;;;14.76;71.63;100236.23;130136;1270;108876;-72
2022/06/02 04:46:57;;;;;;;3.80;3.40;;;;;;;14.73;71.65;100239.13;130116;1270;108602;-73
2022/06/02 04:50:10;;;;;;;3.90;3.50;;;;;;;14.71;71.73;100229.25;130174;1270;108704;-74
2022/06/02 04:53:25;;;;;;;4.40;3.40;;;;;;;14.67;71.75;100213.23;130180;1270;108826;-72
2022/06/02 04:56:37;;;;;;;3.30;3.00;;;;;;;14.66;71.85;100201.16;130072;1270;109178;-72
2022/06/02 04:59:58;;;;;;;4.70;3.40;;;;;;;14.68;71.80;100203.18;130013;1270;108867;-72
2022/06/02 05:03:11;;;;;;;3.70;3.00;;;;;;;14.72;71.83;100200.77;130277;1270;108859;-72
2022/06/02 05:06:25;;;;;;;3.70;3.20;;;;;;;14.82;71.95;100205.68;130198;1270;108816;-71
2022/06/02 05:09:38;;;;;;;4.60;3.10;;;;;;;14.90;71.87;100220.27;130211;1270;108927;-72
2022/06/02 05:12:53;;;;;;;3.50;3.00;;;;;;;14.93;71.80;100227.34;130223;1269;108703;-71
2022/06/02 05:16:15;;;;;;;3.00;2.70;;;;;;;15.02;72.02;100232.70;130149;1270;108697;-72
2022/06/02 05:19:37;;;;;;;2.60;2.40;;;;;;;15.16;71.88;100239.89;130174;1270;108773;-72
2022/06/02 05:23:21;;;;;;;2.90;2.50;;;;;;;15.35;71.98;100253.41;130162;1270;108951;-72
2022/06/02 05:26:54;;;;;;;2.40;2.10;;;;;;;15.70;72.08;100257.55;129855;1271;108746;-72
2022/06/02 05:30:17;;;;;;;2.60;2.20;;;;;;;15.98;71.80;100260.95;130060;1270;108244;-72
2022/06/02 05:34:05;;;;;;;3.20;2.30;;;;;;;16.18;71.60;100252.31;130199;1271;107671;-72
2022/06/02 05:37:26;;;;;;;2.50;2.30;;;;;;;16.36;71.51;100256.73;129755;1270;108671;-72
2022/06/02 05:40:38;;;;;;;4.90;2.30;;;;;;;16.50;71.26;100265.77;130175;1270;108643;-74
2022/06/02 05:43:52;;;;;;;2.50;2.30;;;;;;;16.64;71.52;100273.36;130183;1271;108713;-71
2022/06/02 05:47:17;;;;;;;2.50;1.90;;;;;;;16.91;71.89;100272.09;130205;1270;108722;-71
2022/06/02 05:50:36;;;;;;;2.90;2.30;;;;;;;17.24;71.69;100268.34;130217;1270;108850;-71
2022/06/02 05:53:54;;;;;;;2.10;1.90;;;;;;;17.39;71.44;100272.33;130191;1270;108817;-72
2022/06/02 05:57:14;;;;;;;2.80;1.90;;;;;;;17.47;71.19;100281.02;130214;1270;108576;-71
2022/06/02 06:00:32;;;;;;;2.20;2.00;;;;;;;17.61;71.19;100285.05;130205;1270;108538;-72
2022/06/02 06:03:48;;;;;;;2.10;1.90;;;;;;;17.78;70.96;100292.30;130179;1270;108662;-72
2022/06/02 06:07:01;;;;;;;2.30;2.10;;;;;;;17.96;70.71;100298.07;130170;1270;108940;-72
2022/06/02 06:10:12;;;;;;;2.40;2.10;;;;;;;18.09;70.62;100307.84;130167;1270;108704;-72
2022/06/02 06:13:35;;;;;;;1.90;1.80;;;;;;;18.21;70.45;100305.36;130210;1270;107741;-72
2022/06/02 06:16:45;;;;;;;2.60;2.40;;;;;;;18.26;70.18;100315.34;130140;1270;108943;-72
2022/06/02 06:20:03;;;;;;;2.20;2.00;;;;;;;18.27;70.27;100317.05;130144;1271;108806;-72
2022/06/02 06:23:30;;;;;;;1.80;1.70;;;;;;;18.32;70.50;100315.70;129968;1271;108739;-72
2022/06/02 06:26:47;;;;;;;2.00;1.80;;;;;;;18.47;70.37;100312.42;130179;1270;108687;-72
2022/06/02 06:30:07;;;;;;;2.00;1.80;;;;;;;18.66;70.19;100314.96;130183;1270;108663;-72
2022/06/02 06:33:27;;;;;;;2.40;1.80;;;;;;;18.73;69.95;100316.44;130084;1271;108764;-72
2022/06/02 06:37:09;;;;;;;1.90;1.80;;;;;;;18.76;69.76;100324.25;130232;1270;108139;-72
2022/06/02 06:40:31;;;;;;;3.30;2.30;;;;;;;18.70;69.79;100323.75;130200;1270;108828;-72
2022/06/02 06:43:51;;;;;;;3.00;2.20;;;;;;;18.48;69.28;100326.93;130277;1270;108813;-72
2022/06/02 06:47:06;;;;;;;2.10;1.80;;;;;;;18.33;69.81;100332.71;130169;1270;108818;-72
2022/06/02 06:50:19;;;;;;;4.30;1.90;;;;;;;18.42;69.68;100346.33;130109;1271;108882;-73
2022/06/02 06:53:39;;;;;;;1.80;1.60;;;;;;;18.33;69.14;100360.67;130154;1270;108742;-72
2022/06/02 06:56:53;;;;;;;2.30;2.10;;;;;;;18.19;69.28;100365.69;130153;1270;108969;-72
2022/06/02 07:00:05;;;;;;;2.70;2.00;;;;;;;18.07;68.84;100372.27;130163;1270;109201;-72
2022/06/02 07:03:24;;;;;;;2.60;2.10;;;;;;;17.94;69.12;100373.49;130215;1270;108746;-73
2022/06/02 07:06:42;;;;;;;2.40;2.20;;;;;;;17.73;68.17;100378.89;130247;1270;108737;-72
2022/06/02 07:09:55;;;;;;;2.90;2.60;;;;;;;17.42;68.69;100390.42;130117;1271;108151;-72
2022/06/02 07:13:08;;;;;;;2.80;2.50;;;;;;;17.33;68.95;100399.06;130177;1270;108913;-72
2022/06/02 07:16:22;;;;;;;3.90;3.50;;;;;;;17.17;68.94;100409.20;130077;1271;108809;-73
2022/06/02 07:19:38;;;;;;;4.70;3.70;;;;;;;16.89;69.13;100415.58;130152;1270;108848;-72
2022/06/02 07:22:54;;;;;;;4.30;3.50;;;;;;;16.51;69.78;100416.19;130194;1270;108635;-72
2022/06/02 07:26:22;;;;;;;4.50;4.00;;;;;;;16.24;70.07;100411.61;130251;1270;108686;-72
2022/06/02 07:29:45;;;;;;;4.10;3.70;;;;;;;16.20;70.21;100413.31;130177;1270;109057;-72
2022/06/02 07:33:21;;;;;;;4.90;3.70;;;;;;;16.29;70.16;100420.54;130223;1270;108760;-72
2022/06/02 07:36:54;;;;;;;5.10;4.70;;;;;;;16.19;70.09;100427.11;129832;1270;108769;-72
2022/06/02 07:40:25;;;;;;;5.10;4.60;;;;;;;15.89;70.64;100430.34;130195;1270;108880;-72
2022/06/02 07:44:07;;;;;;;5.00;4.10;;;;;;;15.80;70.69;100437.91;130152;1270;108946;-72
2022/06/02 07:47:36;;;;;;;5.70;4.40;;;;;;;15.76;70.44;100446.05;129722;1271;108686;-72
2022/06/02 07:50:49;;;;;;;4.00;3.60;;;;;;;15.84;70.51;100456.04;130189;1270;108758;-72
2022/06/02 07:54:22;;;;;;;3.70;3.40;;;;;;;16.00;67.21;100462.04;130180;1270;108575;-72
2022/06/02 07:57:41;;;;;;;3.20;2.90;;;;;;;16.09;66.53;100463.14;130174;1270;108412;-72
2022/06/02 08:00:54;;;;;;;3.50;3.20;;;;;;;16.39;67.11;100460.25;130218;1270;108931;-75
2022/06/02 08:04:13;;;;;;;3.90;2.60;;;;;;;16.86;66.87;100456.98;130168;1270;108793;-74
2022/06/02 08:07:26;;;;;;;2.60;2.30;;;;;;;17.23;65.26;100459.52;130101;1270;108816;-74
2022/06/02 08:10:46;;;;;;;2.50;2.30;;;;;;;17.10;63.58;100453.36;130200;1270;108854;-73
2022/06/02 08:14:02;;;;;;;2.40;2.20;;;;;;;16.71;63.67;100452.42;130168;1270;106648;-74
2022/06/02 08:17:21;;;;;;;2.70;2.40;;;;;;;16.39;64.56;100450.71;130205;1270;109005;-73
2022/06/02 08:20:45;;;;;;;2.20;2.00;;;;;;;16.11;64.99;100461.42;130198;1270;107473;-73
2022/06/02 08:24:23;;;;;;;3.20;2.10;;;;;;;15.83;64.70;100455.64;130189;1270;108840;-74
2022/06/02 08:27:53;;;;;;;2.20;2.00;;;;;;;15.66;65.29;100461.56;130077;1270;108933;-72
2022/06/02 08:31:07;;;;;;;2.20;1.70;;;;;;;15.68;66.08;100453.77;130202;1270;108737;-73
2022/06/02 08:34:18;;;;;;;1.90;1.40;;;;;;;15.81;65.74;100448.35;130196;1270;108764;-73
2022/06/02 08:37:35;;;;;;;1.60;1.50;;;;;;;16.06;66.02;100455.05;130150;1270;108749;-73
2022/06/02 08:41:31;;;;;;;2.90;1.20;;;;;;;16.54;66.14;100458.28;130150;1270;107577;-73
2022/06/02 08:45:09;;;;;;;1.20;1.10;;;;;;;16.71;64.30;100453.27;130126;1270;108723;-73
2022/06/02 08:48:59;;;;;;;1.70;1.00;;;;;;;16.74;64.39;100445.23;130236;1270;108717;-73
2022/06/02 08:52:38;;;;;;;1.30;1.20;;;;;;;16.84;64.57;100444.01;129221;1278;108747;-73
2022/06/02 08:56:03;;;;;;;1.80;1.30;;;;;;;17.05;63.92;100446.66;129332;1271;108759;-73
2022/06/02 08:59:55;;;;;;;2.20;1.20;;;;;;;17.11;64.75;100443.04;130172;1270;108747;-73
2022/06/02 09:03:33;;;;;;;1.50;1.20;;;;;;;17.31;64.54;100439.66;129890;1271;108985;-73
2022/06/02 09:07:15;;;;;;;0.90;0.90;;;;;;;17.44;63.65;100431.53;130231;1270;108748;-73
2022/06/02 09:10:44;;;;;;;1.70;0.90;;;;;;;17.56;64.64;100439.23;130175;1270;108682;-73
2022/06/02 09:14:16;;;;;;;1.40;1.00;;;;;;;17.67;63.44;100443.18;130156;1270;108667;-73
2022/06/02 09:17:44;;;;;;;0.90;0.80;;;;;;;17.60;63.22;100445.45;130144;1271;108955;-73
2022/06/02 09:20:58;;;;;;;0.80;0.80;;;;;;;17.61;63.67;100447.91;130174;1270;108569;-73
2022/06/02 09:24:16;;;;;;;0.90;0.80;;;;;;;17.71;63.86;100449.73;130153;1270;108756;-74
2022/06/02 09:27:53;;;;;;;1.10;1.00;;;;;;;18.02;63.80;100446.05;130165;1270;108804;-73
2022/06/02 09:31:22;;;;;;;0.80;0.70;;;;;;;18.22;63.58;100437.55;130230;1270;108624;-72
2022/06/02 09:34:41;;;;;;;0.70;0.70;;;;;;;18.31;63.02;100437.42;130103;1268;108827;-74
2022/06/02 09:38:06;;;;;;;0.80;0.80;;;;;;;18.30;62.27;100435.20;130216;1270;107819;-73
2022/06/02 09:41:29;;;;;;;0.60;0.60;;;;;;;18.26;61.37;100440.67;130173;1270;108840;-73
2022/06/02 09:44:47;;;;;;;1.20;0.60;;;;;;;18.33;61.51;100443.55;130055;1271;108661;-73
2022/06/02 09:48:05;;;;;;;1.00;0.50;;;;;;;18.40;59.54;100452.34;130160;1270;109136;-73
2022/06/02 09:51:39;;;;;;;0.60;0.50;;;;;;;18.30;58.04;100453.54;130156;1270;108928;-73
2022/06/02 09:55:05;;;;;;;0.60;0.60;;;;;;;18.29;58.86;100453.41;130182;1270;108729;-73
2022/06/02 09:58:37;;;;;;;1.00;0.40;;;;;;;18.34;58.97;100457.11;130235;1270;108785;-73
2022/06/02 10:01:56;;;;;;;1.60;0.70;;;;;;;18.34;58.51;100460.96;130171;1270;108119;-73
2022/06/02 10:05:26;;;;;;;1.50;0.60;;;;;;;18.37;58.80;100454.21;130195;1270;107666;-74
2022/06/02 10:08:48;;;;;;;2.40;0.80;;;;;;;18.50;58.66;100467.29;130161;1270;108803;-73
2022/06/02 10:15:44;;;;;;;0.70;0.60;;;;;;;18.73;57.94;100464.31;130039;1270;109045;-73
2022/06/02 10:19:06;;;;;;;1.30;0.70;;;;;;;18.88;58.34;100455.71;130082;1270;108969;-73
2022/06/02 10:22:19;;;;;;;0.60;0.50;;;;;;;18.97;56.25;100468.48;129974;1271;108795;-73
2022/06/02 10:26:05;;;;;;;1.60;0.70;;;;;;;19.04;56.47;100465.55;130262;1270;108561;-73
2022/06/02 10:29:55;;;;;;;1.60;1.00;;;;;;;19.12;56.80;100460.27;129887;1270;107857;-73
2022/06/02 10:33:35;;;;;;;1.00;0.90;;;;;;;19.02;54.99;100465.50;130162;1270;108733;-73
2022/06/02 10:37:27;;;;;;;1.20;1.10;;;;;;;18.86;55.12;100467.02;130163;1270;108779;-74
2022/06/02 10:41:05;;;;;;;2.70;1.20;;;;;;;18.87;53.61;100471.14;130119;1270;108897;-73
2022/06/02 10:44:17;;;;;;;1.60;1.30;;;;;;;18.69;55.75;100478.65;130090;1270;108733;-74
2022/06/02 10:47:51;;;;;;;1.80;1.10;;;;;;;18.73;55.56;100484.48;130141;1270;108800;-73
2022/06/02 10:51:24;;;;;;;1.20;1.00;;;;;;;18.84;55.14;100485.06;130116;1270;108802;-73
2022/06/02 10:55:02;;;;;;;1.40;1.20;;;;;;;18.77;53.15;100497.83;129953;1271;108768;-73
2022/06/02 10:58:47;;;;;;;2.20;1.50;;;;;;;18.48;54.08;100496.50;130071;1270;107626;-74
2022/06/02 11:02:26;;;;;;;3.00;1.30;;;;;;;18.60;54.52;100495.33;130048;1270;108790;-73
2022/06/02 11:06:16;;;;;;;2.20;1.10;;;;;;;18.88;54.97;100497.51;130102;1270;108739;-73
2022/06/02 11:10:00;;;;;;;1.30;1.20;;;;;;;19.18;54.60;100495.50;130159;1270;108644;-73
2022/06/02 11:13:40;;;;;;;1.30;1.20;;;;;;;19.02;54.58;100498.98;130098;1271;108758;-73
2022/06/02 11:17:11;;;;;;;2.20;1.10;;;;;;;18.95;55.25;100496.83;130157;1271;107595;-73
2022/06/02 11:20:55;;;;;;;1.30;1.20;;;;;;;19.06;53.39;100497.84;130162;1270;108962;-73
2022/06/02 11:24:27;;;;;;;2.30;1.20;;;;;;;19.26;52.04;100500.05;129526;1271;108810;-73
2022/06/02 11:28:10;;;;;;;1.40;1.30;;;;;;;19.56;54.29;100491.20;129942;1271;108745;-73
2022/06/02 11:31:42;;;;;;;2.20;1.50;;;;;;;19.94;53.18;100497.59;130228;1270;108904;-74
2022/06/02 11:35:13;;;;;;;1.30;1.20;;;;;;;19.93;52.25;100503.05;130149;1270;108749;-73
2022/06/02 11:38:58;;;;;;;1.30;1.20;;;;;;;19.96;52.68;100496.84;130100;1271;108640;-74
2022/06/02 11:42:16;;;;;;;1.70;1.10;;;;;;;20.13;51.26;100493.99;130213;1270;109511;-73
2022/06/02 11:45:46;;;;;;;1.40;1.30;;;;;;;20.24;52.08;100496.81;130109;1270;108627;-73
2022/06/02 11:49:33;;;;;;;2.70;1.40;;;;;;;20.32;51.29;100495.16;130087;1270;109061;-73
2022/06/02 11:53:08;;;;;;;1.30;1.20;;;;;;;20.12;51.80;100497.08;130106;1270;108796;-73
2022/06/02 11:56:29;;;;;;;2.70;1.50;;;;;;;20.21;52.17;100497.32;130166;1270;108762;-73
2022/06/02 12:00:03;;;;;;;2.10;1.70;;;;;;;20.18;51.43;100503.73;130037;1270;108742;-73
2022/06/02 12:03:52;;;;;;;1.50;1.40;;;;;;;20.04;51.11;100503.84;129881;1270;109066;-72
2022/06/02 12:07:17;;;;;;;1.50;1.30;;;;;;;19.89;50.46;100508.50;130077;1268;108859;-71
2022/06/02 12:11:01;;;;;;;1.50;1.40;;;;;;;19.88;50.23;100514.05;130114;1270;108868;-73
2022/06/02 12:14:27;;;;;;;1.50;1.40;;;;;;;19.80;50.71;100504.45;130160;1270;108722;-73
2022/06/02 12:17:52;;;;;;;2.10;1.50;;;;;;;19.70;51.14;100505.39;130104;1271;108736;-73
2022/06/02 12:21:34;;;;;;;1.50;1.40;;;;;;;19.74;51.26;100506.41;130098;1270;108376;-73
2022/06/02 12:25:23;;;;;;;1.70;1.40;;;;;;;19.90;51.52;100503.66;130140;1270;108737;-73
2022/06/02 12:28:53;;;;;;;1.70;1.60;;;;;;;20.12;51.87;100500.23;129910;1270;108757;-72
2022/06/02 12:32:35;;;;;;;2.00;1.40;;;;;;;20.37;51.26;100498.11;130155;1270;109117;-73
2022/06/02 12:35:54;;;;;;;1.60;1.20;;;;;;;20.56;49.38;100498.41;129046;1279;108773;-73
2022/06/02 12:39:21;;;;;;;1.20;1.10;;;;;;;20.47;48.71;100494.19;129038;1271;108860;-73
2022/06/02 12:42:50;;;;;;;1.70;1.50;;;;;;;20.45;50.12;100493.67;130232;1270;108763;-73
2022/06/02 12:46:07;;;;;;;1.30;1.20;;;;;;;20.62;49.05;100490.21;130248;1270;108818;-74
2022/06/02 12:49:48;;;;;;;1.40;1.30;;;;;;;20.56;48.86;100490.29;130190;1270;108938;-73
2022/06/02 12:53:25;;;;;;;1.50;1.40;;;;;;;20.50;49.37;100495.59;130192;1270;108824;-73
2022/06/02 12:56:57;;;;;;;1.30;1.20;;;;;;;20.61;49.27;100496.23;130191;1270;108710;-73
2022/06/02 13:00:45;;;;;;;1.90;1.30;;;;;;;20.80;48.63;100497.44;130014;1271;367275;-73
2022/06/02 13:04:38;;;;;;;1.30;1.20;;;;;;;20.94;48.94;100495.09;130214;1270;108924;-72
2022/06/02 13:08:12;;;;;;;1.80;1.40;;;;;;;20.89;46.40;100492.07;129466;1278;108678;-73
2022/06/02 13:11:49;;;;;;;1.60;1.50;;;;;;;20.71;48.42;100495.61;129362;1271;108590;-73
2022/06/02 13:15:24;;;;;;;1.40;1.20;;;;;;;20.55;47.37;100492.24;129982;1271;108775;-78
2022/06/02 13:18:58;;;;;;;1.40;1.30;;;;;;;20.49;48.70;100493.30;130243;1270;108725;-75
2022/06/02 13:22:31;;;;;;;1.50;1.20;;;;;;;20.54;48.29;100498.55;130274;1270;108821;-75
2022/06/02 13:26:02;;;;;;;1.50;1.40;;;;;;;20.68;48.72;100496.77;130255;1270;108062;-74
2022/06/02 13:29:34;;;;;;;2.10;1.40;;;;;;;20.82;48.37;100496.77;130273;1270;108648;-75
2022/06/02 13:33:04;;;;;;;2.30;1.50;;;;;;;20.89;48.47;100503.41;130182;1271;107620;-75
2022/06/02 13:36:27;;;;;;;1.50;1.40;;;;;;;20.88;48.62;100507.39;130300;1270;108825;-73
2022/06/02 13:40:11;;;;;;;2.10;1.70;;;;;;;20.90;48.63;100510.39;130225;1271;108760;-73
2022/06/02 13:43:50;;;;;;;1.50;1.40;;;;;;;20.95;48.34;100517.45;129930;1271;108975;-75
2022/06/02 13:47:20;;;;;;;2.50;1.40;;;;;;;20.87;48.30;100517.91;130257;1271;108714;-74
2022/06/02 13:51:10;;;;;;;2.60;1.60;;;;;;;20.73;48.16;100518.29;130282;1271;107672;-74
2022/06/02 13:58:58;;;;;;;2.30;2.10;;;;;;;20.49;47.60;100522.38;129681;1274;108770;-74
2022/06/02 14:02:30;;;;;;;2.20;2.00;;;;;;;20.36;48.29;100522.84;129720;1274;108745;-74
2022/06/02 14:05:52;;;;;;;2.60;1.90;;;;;;;20.36;48.40;100527.36;130320;1271;108677;-75
2022/06/02 14:09:09;;;;;;;;;;;;;;;20.41;46.76;100528.34;130961;1269;108757;-74
2022/06/02 14:12:34;;;;;;;2.10;1.90;;;;;;;20.28;46.72;100534.59;130178;1270;108794;-75
2022/06/02 14:15:59;;;;;;;1.90;1.60;;;;;;;20.25;47.89;100536.11;130235;1270;107655;-74
2022/06/02 14:19:25;;;;;;;1.70;1.50;;;;;;;20.48;48.27;100534.88;130207;1270;108525;-73
2022/06/02 14:22:38;;;;;;;1.70;1.50;;;;;;;20.76;47.49;100537.46;130262;1270;108772;-73
2022/06/02 14:25:59;;;;;;;2.00;1.60;;;;;;;20.91;47.74;100529.73;130158;1271;108652;-73
2022/06/02 14:29:28;;;;;;;2.20;2.00;;;;;;;20.96;46.58;100529.93;130286;1270;109024;-73
2022/06/02 14:32:47;;;;;;;1.80;1.70;;;;;;;20.99;46.92;100530.63;130193;1270;108849;-74
2022/06/02 14:36:00;;;;;;;2.40;1.70;;;;;;;21.03;46.65;100530.45;130212;1270;107725;-73
2022/06/02 14:39:16;;;;;;;1.70;1.60;;;;;;;21.04;46.59;100535.27;130188;1270;108105;-74
2022/06/02 14:43:05;;;;;;;1.50;1.40;;;;;;;21.03;46.01;100534.09;130181;1270;107682;-73
2022/06/02 14:46:24;;;;;;;2.60;1.50;;;;;;;20.86;46.14;100541.10;130182;1270;108679;-75
2022/06/02 14:49:45;;;;;;;2.00;1.40;;;;;;;20.56;44.88;100547.05;130164;1270;108152;-75
2022/06/02 14:53:10;;;;;;;1.60;1.50;;;;;;;20.31;45.80;100546.95;130183;1270;108951;-73
2022/06/02 14:56:26;;;;;;;1.70;1.60;;;;;;;20.37;46.28;100549.73;130243;1271;109300;-74
2022/06/02 14:59:41;;;;;;;1.80;1.70;;;;;;;20.45;45.86;100550.42;130217;1270;108950;-75
2022/06/02 15:03:22;;;;;;;2.60;2.40;;;;;;;20.48;46.15;100548.48;130137;1271;108569;-74
2022/06/02 15:06:40;;;;;;;2.60;2.40;;;;;;;20.35;45.68;100552.54;130211;1270;108706;-73
2022/06/02 15:10:06;;;;;;;2.70;2.50;;;;;;;20.15;45.86;100552.59;130182;1270;108770;-73
2022/06/02 15:13:35;;;;;;;2.30;2.10;;;;;;;20.11;46.11;100553.26;130210;1270;108759;-76
2022/06/02 15:17:11;;;;;;;1.80;1.70;;;;;;;20.17;46.09;100552.05;130095;1270;107424;-75
2022/06/02 15:20:34;;;;;;;1.60;1.50;;;;;;;20.19;46.01;100553.30;130165;1270;108690;-73
2022/06/02 15:24:05;;;;;;;2.00;1.70;;;;;;;20.22;46.42;100556.17;130227;1270;108664;-75
2022/06/02 15:27:34;;;;;;;1.70;1.60;;;;;;;20.08;45.68;100555.59;130526;1271;108994;-74
2022/06/02 15:31:12;;;;;;;1.90;1.80;;;;;;;20.02;46.12;100558.59;130248;1271;107458;-74
2022/06/02 15:34:53;;;;;;;1.90;1.60;;;;;;;20.08;45.92;100555.84;130187;1271;108746;-75
2022/06/02 15:38:30;;;;;;;1.80;1.60;;;;;;;19.87;45.39;100558.77;130228;1271;108712;-75
2022/06/02 15:42:10;;;;;;;1.80;1.60;;;;;;;19.64;46.33;100558.77;130232;1271;108790;-74